createdAt,value
2023-05-05T00:01:15.952Z,98808.59
2023-05-05T00:03:42.808Z,98808.75
2023-05-05T00:06:09.513Z,98808.13
2023-05-05T00:08:36.173Z,98799.03
2023-05-05T00:11:02.776Z,98804.88
2023-05-05T00:13:29.380Z,98795.56
2023-05-05T00:15:56.012Z,98806.81
2023-05-05T00:18:22.921Z,98807.53
2023-05-05T00:20:49.921Z,98802.63
2023-05-05T00:23:19.476Z,98801.69
2023-05-05T00:25:46.248Z,98800.22
2023-05-05T00:28:18.818Z,98796.59
2023-05-05T00:30:45.811Z,98798.66
2023-05-05T00:33:12.379Z,98801.69
2023-05-05T00:35:39.017Z,98787.94
2023-05-05T00:38:06.071Z,98791.84
2023-05-05T00:40:32.818Z,98788.97
2023-05-05T00:42:59.619Z,98787.94
2023-05-05T00:45:26.441Z,98791.19
2023-05-05T00:47:55.227Z,98797.78
2023-05-05T00:50:26.258Z,98798.25
2023-05-05T00:52:56.687Z,98781.94
2023-05-05T00:55:23.339Z,98790.31
2023-05-05T00:57:50.320Z,98784.94
2023-05-05T01:00:17.827Z,98786.47
2023-05-05T01:02:45.043Z,98785.25
2023-05-05T01:05:14.255Z,98784.63
2023-05-05T01:07:43.511Z,98779.44
2023-05-05T01:10:26.646Z,98784.34
2023-05-05T01:13:14.893Z,98786.00
2023-05-05T01:15:51.857Z,98777.94
2023-05-05T01:18:46.184Z,98772.38
2023-05-05T01:21:33.714Z,98770.00
2023-05-05T01:24:43.920Z,98765.19
2023-05-05T01:27:27.660Z,98767.03
2023-05-05T01:30:34.742Z,98754.13
2023-05-05T01:33:08.597Z,98758.50
2023-05-05T01:35:50.804Z,98752.94
2023-05-05T01:38:25.335Z,98755.34
2023-05-05T01:41:12.000Z,98753.25
2023-05-05T01:43:39.752Z,98756.97
2023-05-05T01:46:07.558Z,98749.50
2023-05-05T01:48:34.649Z,98755.03
2023-05-05T01:51:03.294Z,98758.47
2023-05-05T01:53:31.493Z,98754.88
2023-05-05T01:55:58.992Z,98750.53
2023-05-05T01:58:28.619Z,98745.13
2023-05-05T02:00:57.342Z,98748.59
2023-05-05T02:03:26.607Z,98745.72
2023-05-05T02:05:55.085Z,98747.38
2023-05-05T02:08:22.701Z,98743.81
2023-05-05T02:10:50.474Z,98738.13
2023-05-05T02:13:18.170Z,98739.66
2023-05-05T02:15:46.866Z,98738.00
2023-05-05T02:18:14.582Z,98739.69
2023-05-05T02:20:41.565Z,98742.91
2023-05-05T02:23:08.702Z,98740.06
2023-05-05T02:25:42.427Z,98758.91
2023-05-05T02:28:42.091Z,98765.44
2023-05-05T02:31:11.730Z,98752.34
2023-05-05T02:33:40.183Z,98766.56
2023-05-05T02:36:14.542Z,98767.03
2023-05-05T02:38:54.150Z,98769.28
2023-05-05T02:41:21.661Z,98773.38
2023-05-05T02:43:50.366Z,98776.69
2023-05-05T02:46:17.764Z,98776.56
2023-05-05T02:48:45.122Z,98783.09
2023-05-05T02:51:11.760Z,98782.03
2023-05-05T02:53:38.793Z,98777.59
2023-05-05T02:56:32.659Z,98782.25
2023-05-05T02:59:47.304Z,98787.09
2023-05-05T03:02:27.839Z,98778.00
2023-05-05T03:05:06.915Z,98781.28
2023-05-05T03:07:39.366Z,98785.66
2023-05-05T03:10:09.463Z,98778.91
2023-05-05T03:12:46.120Z,98787.16
2023-05-05T03:15:14.101Z,98781.59
2023-05-05T03:17:44.161Z,98781.97
2023-05-05T03:20:12.833Z,98787.63
2023-05-05T03:22:39.494Z,98778.91
2023-05-05T03:25:06.507Z,98790.47
2023-05-05T03:27:33.096Z,98789.16
2023-05-05T03:30:01.557Z,98781.13
2023-05-05T03:32:28.486Z,98785.00
2023-05-05T03:34:55.247Z,98780.53
2023-05-05T03:37:31.868Z,98783.97
2023-05-05T03:39:58.416Z,98780.94
2023-05-05T03:42:25.076Z,98785.56
2023-05-05T03:44:53.618Z,98784.25
2023-05-05T03:47:20.360Z,98785.84
2023-05-05T03:49:46.922Z,98789.41
2023-05-05T03:52:15.058Z,98788.56
2023-05-05T03:54:42.982Z,98785.31
2023-05-05T03:57:09.548Z,98790.19
2023-05-05T03:59:36.188Z,98790.84
2023-05-05T04:02:02.772Z,98791.56
2023-05-05T04:04:29.436Z,98791.00
2023-05-05T04:06:56.094Z,98791.50
2023-05-05T04:09:22.681Z,98793.25
2023-05-05T04:11:49.267Z,98798.53
2023-05-05T04:14:16.144Z,98801.00
2023-05-05T04:16:42.773Z,98799.44
2023-05-05T04:19:09.349Z,98800.94
2023-05-05T04:21:35.970Z,98799.03
2023-05-05T04:24:02.605Z,98801.19
2023-05-05T04:26:29.230Z,98805.00
2023-05-05T04:28:56.745Z,98798.81
2023-05-05T04:31:23.478Z,98801.47
2023-05-05T04:33:50.176Z,98790.78
2023-05-05T04:36:24.292Z,98787.72
2023-05-05T04:38:51.117Z,98784.78
2023-05-05T04:41:17.770Z,98798.25
2023-05-05T04:43:44.612Z,98798.06
2023-05-05T04:46:11.182Z,98797.97
2023-05-05T04:48:38.380Z,98802.84
2023-05-05T04:51:06.504Z,98807.06
2023-05-05T04:53:33.308Z,98812.78
2023-05-05T04:56:01.120Z,98815.16
2023-05-05T04:58:28.622Z,98816.06
2023-05-05T05:00:55.214Z,98810.53
2023-05-05T05:03:21.977Z,98813.50
2023-05-05T05:05:48.792Z,98816.34
2023-05-05T05:08:18.460Z,98812.13
2023-05-05T05:10:45.462Z,98824.31
2023-05-05T05:13:12.972Z,98824.44
2023-05-05T05:15:40.549Z,98832.84
2023-05-05T05:18:07.154Z,98825.22
2023-05-05T05:20:33.981Z,98824.47
2023-05-05T05:23:04.344Z,98827.34
2023-05-05T05:25:30.934Z,98832.06
2023-05-05T05:28:08.792Z,98835.38
2023-05-05T05:30:36.921Z,98845.44
2023-05-05T05:33:03.723Z,98834.16
2023-05-05T05:35:31.401Z,98840.00
2023-05-05T05:37:58.065Z,98835.78
2023-05-05T05:40:24.654Z,98840.13
2023-05-05T05:42:51.224Z,98833.72
2023-05-05T05:45:17.927Z,98840.34
2023-05-05T05:47:44.526Z,98849.50
2023-05-05T05:50:11.578Z,98849.91
2023-05-05T05:52:38.196Z,98855.34
2023-05-05T05:55:06.367Z,98855.72
2023-05-05T05:57:32.953Z,98858.00
2023-05-05T06:00:01.780Z,98873.16
2023-05-05T06:02:29.005Z,98872.97
2023-05-05T06:04:55.924Z,98875.06
2023-05-05T06:07:22.558Z,98871.91
2023-05-05T06:09:49.269Z,98877.59
2023-05-05T06:12:16.219Z,98876.16
2023-05-05T06:14:44.918Z,98879.84
2023-05-05T06:17:11.514Z,98870.63
2023-05-05T06:19:40.738Z,98882.03
2023-05-05T06:22:07.321Z,98881.34
2023-05-05T06:24:33.937Z,98877.13
2023-05-05T06:27:00.652Z,98873.16
2023-05-05T06:29:27.990Z,98886.38
2023-05-05T06:31:55.033Z,98882.84
2023-05-05T06:34:21.676Z,98885.63
2023-05-05T06:36:48.273Z,98886.69
2023-05-05T06:39:16.151Z,98878.84
2023-05-05T06:41:43.314Z,98881.59
2023-05-05T06:44:11.189Z,98880.69
2023-05-05T06:46:38.318Z,98879.09
2023-05-05T06:49:04.983Z,98878.97
2023-05-05T06:51:31.877Z,98880.81
2023-05-05T06:53:58.434Z,98873.91
2023-05-05T06:56:25.072Z,98869.88
2023-05-05T06:58:51.735Z,98872.03
2023-05-05T07:01:18.354Z,98880.22
2023-05-05T07:03:45.002Z,98876.25
2023-05-05T07:06:11.702Z,98873.91
2023-05-05T07:08:38.387Z,98872.78
2023-05-05T07:11:05.077Z,98872.94
2023-05-05T07:13:31.669Z,98872.13
2023-05-05T07:15:58.397Z,98873.75
2023-05-05T07:18:25.050Z,98870.84
2023-05-05T07:20:51.671Z,98870.47
2023-05-05T07:23:18.283Z,98876.06
2023-05-05T07:25:45.412Z,98875.09
2023-05-05T07:28:12.169Z,98880.91
2023-05-05T07:30:38.825Z,98881.59
2023-05-05T07:33:05.512Z,98894.53
2023-05-05T07:35:32.131Z,98895.03
2023-05-05T07:37:58.693Z,98896.09
2023-05-05T07:40:25.760Z,98897.00
2023-05-05T07:42:52.461Z,98901.81
2023-05-05T07:45:19.219Z,98903.16
2023-05-05T07:47:45.821Z,98900.34
2023-05-05T07:50:12.527Z,98908.41
2023-05-05T07:55:09.248Z,98901.13
2023-05-05T07:57:35.836Z,98897.78
2023-05-05T08:00:03.075Z,98891.22
2023-05-05T08:02:29.717Z,98890.41
2023-05-05T08:04:56.535Z,98893.94
2023-05-05T08:07:23.141Z,98885.56
2023-05-05T08:09:49.685Z,98887.22
2023-05-05T08:12:18.952Z,98869.59
2023-05-05T08:14:45.667Z,98877.13
2023-05-05T08:17:12.270Z,98883.97
2023-05-05T08:19:38.872Z,98881.09
2023-05-05T08:22:05.534Z,98889.78
2023-05-05T08:24:32.103Z,98883.22
2023-05-05T08:26:58.729Z,98880.84
2023-05-05T08:29:25.319Z,98876.00
2023-05-05T08:31:52.415Z,98879.22
2023-05-05T08:34:19.069Z,98887.06
2023-05-05T08:36:45.935Z,98874.56
2023-05-05T08:39:12.546Z,98882.53
2023-05-05T08:41:39.147Z,98885.31
2023-05-05T08:44:07.813Z,98890.50
2023-05-05T08:46:36.388Z,98881.97
2023-05-05T08:49:08.325Z,98873.75
2023-05-05T08:51:44.324Z,98874.75
2023-05-05T08:54:20.475Z,98882.00
2023-05-05T08:56:51.391Z,98886.91
2023-05-05T08:59:21.010Z,98878.50
2023-05-05T09:01:48.364Z,98876.84
2023-05-05T09:04:15.617Z,98873.81
2023-05-05T09:06:42.472Z,98873.91
2023-05-05T09:09:09.453Z,98872.19
2023-05-05T09:11:37.466Z,98878.88
2023-05-05T09:14:04.162Z,98885.25
2023-05-05T09:16:30.874Z,98886.84
2023-05-05T09:19:04.733Z,98887.38
2023-05-05T09:21:32.242Z,98879.34
2023-05-05T09:24:10.453Z,98887.25
2023-05-05T09:26:44.691Z,98873.78
2023-05-05T09:29:19.473Z,98875.38
2023-05-05T09:32:10.957Z,98872.06
2023-05-05T09:34:37.641Z,98871.41
2023-05-05T09:37:04.494Z,98881.66
2023-05-05T09:39:31.263Z,98870.94
2023-05-05T09:41:58.356Z,98870.75
2023-05-05T09:44:44.376Z,98868.34
2023-05-05T09:47:26.005Z,98865.41
2023-05-05T09:49:59.124Z,98866.84
2023-05-05T09:52:27.854Z,98867.66
2023-05-05T09:54:58.204Z,98865.88
2023-05-05T09:57:33.704Z,98870.97
2023-05-05T10:00:04.079Z,98860.50
2023-05-05T10:02:33.834Z,98854.72
2023-05-05T10:05:18.264Z,98862.91
2023-05-05T10:07:47.382Z,98862.09
2023-05-05T10:10:16.674Z,98869.41
2023-05-05T10:12:46.211Z,98861.44
2023-05-05T10:15:15.260Z,98863.88
2023-05-05T10:20:19.129Z,98860.34
2023-05-05T10:22:52.567Z,98853.22
2023-05-05T10:25:29.075Z,98852.94
2023-05-05T10:28:01.252Z,98841.75
2023-05-05T10:30:34.134Z,98845.25
2023-05-05T10:35:44.282Z,98840.84
2023-05-05T10:38:12.818Z,98837.94
2023-05-05T10:40:45.772Z,98833.38
2023-05-05T10:43:14.778Z,98830.19
2023-05-05T10:45:42.680Z,98829.94
2023-05-05T10:48:20.620Z,98832.31
2023-05-05T10:51:06.311Z,98822.25
2023-05-05T10:53:44.449Z,98815.56
2023-05-05T10:56:32.457Z,98817.69
2023-05-05T10:59:00.615Z,98826.13
2023-05-05T11:01:35.924Z,98818.31
2023-05-05T11:04:23.328Z,98824.34
2023-05-05T11:07:09.797Z,98817.88
2023-05-05T11:09:55.909Z,98815.56
2023-05-05T11:12:22.571Z,98822.09
2023-05-05T11:15:24.095Z,98836.22
2023-05-05T11:17:57.569Z,98824.19
2023-05-05T11:20:36.828Z,98818.69
2023-05-05T11:23:03.444Z,98820.41
2023-05-05T11:25:36.476Z,98829.16
2023-05-05T11:28:19.003Z,98834.06
2023-05-05T11:31:14.555Z,98831.25
2023-05-05T11:33:41.240Z,98838.69
2023-05-05T11:36:09.854Z,98832.13
2023-05-05T11:39:06.497Z,98824.78
2023-05-05T11:41:33.166Z,98825.97
2023-05-05T11:44:12.525Z,98824.59
2023-05-05T11:46:51.393Z,98817.94
2023-05-05T11:49:31.145Z,98820.88
2023-05-05T11:51:59.232Z,98825.25
2023-05-05T11:54:27.015Z,98826.25
2023-05-05T11:56:58.959Z,98836.69
2023-05-05T11:59:25.932Z,98836.59
2023-05-05T12:01:52.979Z,98828.88
2023-05-05T12:04:20.392Z,98833.78
2023-05-05T12:06:48.797Z,98828.56
2023-05-05T12:09:17.360Z,98825.81
2023-05-05T12:11:56.031Z,98820.53
2023-05-05T12:14:25.518Z,98816.16
2023-05-05T12:17:08.516Z,98806.41
2023-05-05T12:19:36.125Z,98812.00
2023-05-05T12:22:04.997Z,98809.72
2023-05-05T12:24:31.664Z,98807.63
2023-05-05T12:27:09.212Z,98804.41
2023-05-05T12:29:37.553Z,98803.75
2023-05-05T12:32:04.888Z,98793.28
2023-05-05T12:34:32.060Z,98797.56
2023-05-05T12:36:58.805Z,98811.97
2023-05-05T12:39:36.244Z,98819.44
2023-05-05T12:42:06.491Z,98832.44
2023-05-05T12:44:40.559Z,98827.66
2023-05-05T12:47:07.572Z,98809.56
2023-05-05T12:49:51.439Z,98797.09
2023-05-05T12:52:18.551Z,98785.13
2023-05-05T12:54:59.827Z,98776.66
2023-05-05T12:57:27.051Z,98784.13
2023-05-05T12:59:54.155Z,98775.69
2023-05-05T13:02:21.384Z,98783.00
2023-05-05T13:04:53.459Z,98785.09
2023-05-05T13:07:21.972Z,98775.16
2023-05-05T13:09:50.266Z,98769.28
2023-05-05T13:12:20.754Z,98763.31
2023-05-05T13:14:48.254Z,98766.34
2023-05-05T13:17:15.048Z,98756.75
2023-05-05T13:19:42.619Z,98748.72
2023-05-05T13:22:09.999Z,98745.50
2023-05-05T13:24:49.946Z,98736.53
2023-05-05T13:27:17.956Z,98731.38
2023-05-05T13:29:44.609Z,98730.63
2023-05-05T13:32:11.450Z,98728.41
2023-05-05T13:34:38.924Z,98725.72
2023-05-05T13:37:05.730Z,98724.31
2023-05-05T13:39:32.335Z,98720.06
2023-05-05T13:41:58.972Z,98724.09
2023-05-05T13:44:25.620Z,98709.34
2023-05-05T13:46:52.315Z,98706.56
2023-05-05T13:49:20.027Z,98702.50
2023-05-05T13:51:46.898Z,98696.34
2023-05-05T13:54:14.983Z,98695.13
2023-05-05T13:56:41.644Z,98690.38
2023-05-05T13:59:08.264Z,98686.19
2023-05-05T14:01:35.072Z,98682.97
2023-05-05T14:04:04.545Z,98677.84
2023-05-05T14:06:32.452Z,98686.56
2023-05-05T14:08:59.337Z,98688.34
2023-05-05T14:11:25.933Z,98688.41
2023-05-05T14:13:52.600Z,98684.22
2023-05-05T14:16:19.216Z,98684.97
2023-05-05T14:18:46.009Z,98688.84
2023-05-05T14:21:12.574Z,98684.47
2023-05-05T14:23:39.222Z,98674.59
2023-05-05T14:26:05.849Z,98678.50
2023-05-05T14:28:32.478Z,98675.66
2023-05-05T14:30:59.118Z,98686.00
2023-05-05T14:33:25.734Z,98680.66
2023-05-05T14:35:52.398Z,98677.81
2023-05-05T14:38:19.037Z,98686.59
2023-05-05T14:40:45.731Z,98681.03
2023-05-05T14:43:12.390Z,98683.69
2023-05-05T14:45:39.080Z,98669.97
2023-05-05T14:48:05.865Z,98669.78
2023-05-05T14:50:32.557Z,98671.31
2023-05-05T14:52:59.161Z,98681.00
2023-05-05T14:55:26.318Z,98677.25
2023-05-05T14:57:52.942Z,98682.56
2023-05-05T15:00:19.795Z,98682.38
2023-05-05T15:02:48.005Z,98694.56
2023-05-05T15:05:15.076Z,98690.44
2023-05-05T15:07:42.111Z,98690.44
2023-05-05T15:10:09.425Z,98689.41
2023-05-05T15:12:36.194Z,98686.44
2023-05-05T15:15:03.241Z,98687.09
2023-05-05T15:17:30.664Z,98710.72
2023-05-05T15:19:57.359Z,98702.22
2023-05-05T15:22:24.021Z,98700.69
2023-05-05T15:24:50.746Z,98706.13
2023-05-05T15:27:18.044Z,98710.78
2023-05-05T15:29:44.955Z,98717.22
2023-05-05T15:32:11.690Z,98704.13
2023-05-05T15:34:38.334Z,98706.88
2023-05-05T15:37:05.036Z,98700.81
2023-05-05T15:39:31.603Z,98712.03
2023-05-05T15:42:00.006Z,98713.91
2023-05-05T15:44:26.630Z,98714.78
2023-05-05T15:46:53.253Z,98721.41
2023-05-05T15:49:19.843Z,98730.63
2023-05-05T15:51:47.953Z,98717.81
2023-05-05T15:54:14.795Z,98727.38
2023-05-05T15:56:41.479Z,98728.31
2023-05-05T15:59:08.117Z,98721.47
2023-05-05T16:01:36.090Z,98722.97
2023-05-05T16:04:03.477Z,98724.25
2023-05-05T16:06:30.381Z,98711.19
2023-05-05T16:08:58.438Z,98720.59
2023-05-05T16:11:26.348Z,98722.34
2023-05-05T16:13:53.449Z,98721.53
2023-05-05T16:16:20.321Z,98726.75
2023-05-05T16:18:47.231Z,98719.47
2023-05-05T16:21:14.092Z,98722.72
2023-05-05T16:23:40.714Z,98727.56
2023-05-05T16:26:07.323Z,98732.94
2023-05-05T16:28:34.199Z,98733.50
2023-05-05T16:31:01.886Z,98731.59
2023-05-05T16:33:28.986Z,98739.84
2023-05-05T16:35:55.963Z,98737.22
2023-05-05T16:38:23.369Z,98740.94
2023-05-05T16:40:50.316Z,98742.31
2023-05-05T16:43:16.905Z,98740.75
2023-05-05T16:45:43.635Z,98738.69
2023-05-05T16:48:10.349Z,98733.34
2023-05-05T16:50:37.029Z,98734.47
2023-05-05T16:53:04.125Z,98731.78
2023-05-05T16:55:31.326Z,98728.63
2023-05-05T16:57:58.831Z,98726.56
2023-05-05T17:00:25.571Z,98728.47
2023-05-05T17:02:52.175Z,98729.88
2023-05-05T17:05:18.875Z,98728.72
2023-05-05T17:07:45.559Z,98744.09
2023-05-05T17:10:12.217Z,98736.75
2023-05-05T17:12:38.894Z,98737.66
2023-05-05T17:15:06.810Z,98746.16
2023-05-05T17:17:33.699Z,98745.06
2023-05-05T17:20:02.932Z,98750.63
2023-05-05T17:22:29.581Z,98743.41
2023-05-05T17:24:56.385Z,98749.16
2023-05-05T17:27:23.007Z,98749.31
2023-05-05T17:29:49.588Z,98741.50
2023-05-05T17:32:16.150Z,98742.69
2023-05-05T17:34:42.780Z,98754.72
2023-05-05T17:37:09.616Z,98755.50
2023-05-05T17:39:36.280Z,98753.84
2023-05-05T17:42:03.113Z,98756.91
2023-05-05T17:44:31.305Z,98749.06
2023-05-05T17:46:58.291Z,98761.38
2023-05-05T17:49:25.342Z,98759.72
2023-05-05T17:51:52.113Z,98769.31
2023-05-05T17:54:18.668Z,98767.28
2023-05-05T17:56:45.321Z,98761.69
2023-05-05T17:59:12.350Z,98758.97
2023-05-05T18:01:38.930Z,98765.06
2023-05-05T18:04:11.663Z,98771.59
2023-05-05T18:06:38.497Z,98770.13
2023-05-05T18:09:05.151Z,98766.34
2023-05-05T18:11:32.004Z,98762.84
2023-05-05T18:13:58.643Z,98771.13
2023-05-05T18:16:25.420Z,98757.72
2023-05-05T18:18:52.209Z,98768.69
2023-05-05T18:21:18.833Z,98761.34
2023-05-05T18:23:45.670Z,98762.09
2023-05-05T18:26:12.285Z,98764.56
2023-05-05T18:28:40.508Z,98761.00
2023-05-05T18:31:07.312Z,98769.53
2023-05-05T18:33:33.935Z,98771.13
2023-05-05T18:36:02.876Z,98777.28
2023-05-05T18:38:31.256Z,98792.34
2023-05-05T18:40:57.987Z,98783.13
2023-05-05T18:43:24.560Z,98781.66
2023-05-05T18:45:51.308Z,98784.56
2023-05-05T18:48:17.903Z,98790.16
2023-05-05T18:50:45.612Z,98786.91
2023-05-05T18:53:14.583Z,98795.84
2023-05-05T18:55:42.817Z,98802.56
2023-05-05T18:58:09.496Z,98801.31
2023-05-05T19:00:36.327Z,98804.44
2023-05-05T19:03:03.053Z,98804.69
2023-05-05T19:05:29.815Z,98803.03
2023-05-05T19:07:56.434Z,98808.53
2023-05-05T19:10:23.110Z,98806.72
2023-05-05T19:12:49.733Z,98812.38
2023-05-05T19:15:17.969Z,98811.69
2023-05-05T19:17:44.624Z,98809.84
2023-05-05T19:20:11.558Z,98809.75
2023-05-05T19:22:38.293Z,98807.28
2023-05-05T19:25:05.465Z,98816.56
2023-05-05T19:27:33.798Z,98815.59
2023-05-05T19:30:00.450Z,98818.84
2023-05-05T19:32:27.152Z,98810.66
2023-05-05T19:34:54.404Z,98811.53
2023-05-05T19:37:22.114Z,98810.56
2023-05-05T19:39:49.643Z,98809.22
2023-05-05T19:42:17.114Z,98812.47
2023-05-05T19:44:43.711Z,98816.06
2023-05-05T19:47:11.171Z,98809.47
2023-05-05T19:49:38.074Z,98815.06
2023-05-05T19:52:05.067Z,98813.31
2023-05-05T19:54:31.739Z,98811.56
2023-05-05T19:56:59.199Z,98802.97
2023-05-05T19:59:25.902Z,98799.97
2023-05-05T20:01:52.644Z,98806.13
2023-05-05T20:04:19.267Z,98816.31
2023-05-05T20:06:45.839Z,98817.38
2023-05-05T20:09:12.466Z,98817.84
2023-05-05T20:11:39.026Z,98819.34
2023-05-05T20:14:05.639Z,98823.22
2023-05-05T20:16:32.331Z,98828.31
2023-05-05T20:18:59.034Z,98819.00
2023-05-05T20:21:26.619Z,98821.63
2023-05-05T20:23:54.392Z,98816.31
2023-05-05T20:26:21.501Z,98815.94
2023-05-05T20:28:48.175Z,98824.63
2023-05-05T20:31:15.007Z,98824.13
2023-05-05T20:33:42.038Z,98825.31
2023-05-05T20:36:08.751Z,98824.47
2023-05-05T20:38:35.397Z,98822.88
2023-05-05T20:41:02.169Z,98828.09
2023-05-05T20:43:28.846Z,98823.34
2023-05-05T20:45:55.545Z,98833.50
2023-05-05T20:48:22.219Z,98832.03
2023-05-05T20:50:48.879Z,98830.41
2023-05-05T20:53:18.733Z,98831.94
2023-05-05T20:55:45.405Z,98841.44
2023-05-05T20:58:12.045Z,98837.59
2023-05-05T21:00:38.767Z,98832.97
2023-05-05T21:03:05.900Z,98835.22
2023-05-05T21:05:32.576Z,98844.81
2023-05-05T21:08:00.802Z,98836.78
2023-05-05T21:10:28.812Z,98843.88
2023-05-05T21:12:56.214Z,98847.34
2023-05-05T21:15:22.978Z,98843.44
2023-05-05T21:17:49.705Z,98838.78
2023-05-05T21:20:18.443Z,98848.66
2023-05-05T21:22:45.842Z,98849.16
2023-05-05T21:25:17.992Z,98850.19
2023-05-05T21:27:46.057Z,98844.69
2023-05-05T21:30:13.394Z,98851.63
2023-05-05T21:32:41.551Z,98846.97
2023-05-05T21:35:09.464Z,98844.47
2023-05-05T21:37:39.831Z,98844.38
2023-05-05T21:40:16.158Z,98852.09
2023-05-05T21:42:43.197Z,98847.94
2023-05-05T21:45:11.409Z,98852.53
2023-05-05T21:47:38.112Z,98850.88
2023-05-05T21:50:05.272Z,98850.91
2023-05-05T21:52:31.966Z,98841.38
2023-05-05T21:54:58.553Z,98845.34
2023-05-05T21:57:25.262Z,98839.44
2023-05-05T21:59:51.941Z,98845.19
2023-05-05T22:02:18.599Z,98843.34
2023-05-05T22:04:48.423Z,98840.34
2023-05-05T22:07:15.305Z,98841.34
2023-05-05T22:09:42.790Z,98845.84
2023-05-05T22:12:09.408Z,98849.84
2023-05-05T22:14:36.090Z,98849.84
2023-05-05T22:17:02.774Z,98848.09
2023-05-05T22:19:29.466Z,98843.41
2023-05-05T22:21:58.417Z,98855.00
2023-05-05T22:24:25.468Z,98849.28
2023-05-05T22:26:52.156Z,98857.31
2023-05-05T22:29:18.815Z,98859.44
2023-05-05T22:31:45.487Z,98858.06
2023-05-05T22:34:12.250Z,98851.94
2023-05-05T22:36:38.805Z,98855.56
2023-05-05T22:39:05.468Z,98858.25
2023-05-05T22:41:32.064Z,98855.78
2023-05-05T22:43:58.645Z,98857.00
2023-05-05T22:46:25.359Z,98849.69
2023-05-05T22:48:52.714Z,98846.00
2023-05-05T22:51:19.268Z,98856.09
2023-05-05T22:53:45.842Z,98850.94
2023-05-05T22:56:12.417Z,98846.00
2023-05-05T22:58:38.980Z,98849.59
2023-05-05T23:01:05.704Z,98849.59
2023-05-05T23:03:32.326Z,98853.75
2023-05-05T23:05:58.943Z,98854.28
2023-05-05T23:08:35.526Z,98848.81
2023-05-05T23:11:02.078Z,98847.84
2023-05-05T23:13:28.712Z,98852.78
2023-05-05T23:15:55.272Z,98849.25
2023-05-05T23:18:21.860Z,98859.50
2023-05-05T23:20:48.458Z,98856.56
2023-05-05T23:23:15.143Z,98856.03
2023-05-05T23:25:42.655Z,98855.03
2023-05-05T23:28:09.956Z,98856.66
2023-05-05T23:30:36.579Z,98855.66
2023-05-05T23:33:03.932Z,98857.72
2023-05-05T23:35:30.908Z,98861.00
2023-05-05T23:37:57.516Z,98855.66
2023-05-05T23:40:24.155Z,98856.91
2023-05-05T23:42:50.753Z,98859.31
2023-05-05T23:45:19.306Z,98861.66
2023-05-05T23:47:46.254Z,98859.59
2023-05-05T23:50:12.857Z,98853.66
2023-05-05T23:52:39.465Z,98850.31
2023-05-05T23:55:08.861Z,98848.25
2023-05-05T23:57:36.053Z,98845.25
